KTVL/TVL METAR and TAF weather

Enter ICAO airport designator
Station Type Date Time Source
KTVL METAR 2019/12/07 15:11 UTC NOAA

KTVL 071511Z AUTO 20014G20KT 10SM -RA BKN026 OVC032 04/01 A2997 RMK AO2 P0000 T00440011


Station Type Date Time Source
KTVL Decoded METAR 2019/12/07 15:11 UTC NOAA

SOUTH LAKE TAHOE AIRPORT, CA, United States (KTVL) 38-53N 119-59W 1925M
Dec 07, 2019 - 10:11 AM EST / 2019.12.07 1511 UTC
Wind: from the SSW (200 degrees) at 16 MPH (14 KT) gusting to 23 MPH (20 KT):0
Visibility: 10 mile(s):0
Sky conditions: overcast
Weather: light rain
Precipitation last hour: A trace
Temperature: 39.9 F (4.4 C)
Dew Point: 34.0 F (1.1 C)
Relative Humidity: 79%
Pressure (altimeter): 29.97 in. Hg (1014 hPa)
ob: KTVL 071511Z AUTO 20014G20KT 10SM -RA BKN026 OVC032 04/01 A2997 RMK AO2 P0000 T00440011
cycle: 15

Station Type Date Time Source
KTVL TAF 2019/12/07 12:24 UTC NOAA

TAF KTVL 071120Z 0712/0812 19018G30KT 6SM -RA SCT015 OVC025 WS015/24050KT
FM080200 20015G25KT 3SM -RASN OVC015 WS015/26045KT
FM080500 19011G18KT 1SM -SN OVC010 WS015/26035KT
FM081000 19010KT 3SM -SHSN SCT008 OVC020

Example: see airport list